Bangor, Michigan
Current Conditions -  °F | °C
As of 6:55 PM on Sunday 21 Dec 2014 (Local Time) from KLWA Reporting Station
Clear Clear  
Wind Chill: 29°   Ceiling: Unl
Heat Index: 34°   Visibility: 7mi
Dew Point: 27°   Wind: 6mph
Humidity: 77%   Direction: 140°SE
Pressure: 30.12"   Gusts: NA
Location:  42.31°N, 86.11°W
Report Text: KLWA 212355Z AUTO 14005KT 7SM CLR 01/M03 A3012 RMK AO2 T00101027 10027 20010
Loading
Personal Weather Stations






























Interactive Weather Map New forecast layout! Learn more

10-Day Weather Forecast

Advertisements
Track Severe Weather on mobile